PIA750 LFPG-OPIS
Flight info
| Callsign | PIA750 |
|---|---|
| Flight time | N/A |
| Altitude | 35000 |
| Route | LANVI6H/08L LANVI DCT DEVDI DCT ODINA DCT LABIN DCT NISVA Q13 UDROS UM859 KARDE UN644 ROLIN N644 LAGAS M747 BODKA P130 MAMED B449 DOLOS B475 NINOP A909 LEMOD N644 REGET G325 HANGU J139 KALMI KALMI1A |
| Aircraft | B77W/H-SDE1E2E3FGHIJ2J3J4J5M1RWXY/LB1D1 |
Departure
| Time | 2026-05-01 08:14 |
|---|---|
| Airport | Charles de Gaulle International Airport (LFPG) |
Arrival
| Time | N/A |
|---|---|
| Airport | Islamabad International Airport (OPIS) |
| Time | Latitude | Longitude | Altitude | Speed | Heading |
|---|---|---|---|---|---|
| 2026-05-01 07:53 | 49.00265 | 2.59024 | 359 ft | 0 kts | 84° |
| 2026-05-01 07:56 | 49.00205 | 2.58612 | 365 ft | 0 kts | 262° |
| 2026-05-01 08:01 | 49.00209 | 2.58650 | 362 ft | 3 kts | 252° |
| 2026-05-01 08:01 | 49.00220 | 2.58688 | 368 ft | 3 kts | 237° |
| 2026-05-01 08:01 | 49.00236 | 2.58719 | 368 ft | 3 kts | 219° |
| 2026-05-01 08:02 | 49.00285 | 2.58748 | 361 ft | 3 kts | 179° |
| 2026-05-01 08:02 | 49.00293 | 2.58747 | 359 ft | 0 kts | 175° |
| 2026-05-01 08:07 | 49.00285 | 2.58748 | 361 ft | 5 kts | 176° |
| 2026-05-01 08:08 | 49.00210 | 2.58757 | 368 ft | 14 kts | 175° |
| 2026-05-01 08:08 | 49.00035 | 2.58648 | 359 ft | 16 kts | 257° |
| 2026-05-01 08:09 | 49.00012 | 2.58310 | 364 ft | 16 kts | 265° |
| 2026-05-01 08:09 | 49.00000 | 2.58140 | 366 ft | 16 kts | 265° |
| 2026-05-01 08:09 | 48.99992 | 2.57970 | 364 ft | 16 kts | 266° |
| 2026-05-01 08:10 | 48.99974 | 2.57631 | 365 ft | 16 kts | 266° |
| 2026-05-01 08:10 | 48.99956 | 2.57291 | 362 ft | 16 kts | 263° |
| 2026-05-01 08:11 | 48.99938 | 2.56951 | 359 ft | 16 kts | 264° |
| 2026-05-01 08:11 | 48.99921 | 2.56610 | 361 ft | 16 kts | 265° |
| 2026-05-01 08:12 | 48.99906 | 2.56273 | 359 ft | 16 kts | 269° |
| 2026-05-01 08:12 | 48.99899 | 2.56101 | 362 ft | 16 kts | 264° |
| 2026-05-01 08:12 | 48.99862 | 2.55791 | 364 ft | 16 kts | 197° |
| 2026-05-01 08:13 | 48.99749 | 2.55805 | 364 ft | 16 kts | 175° |
| 2026-05-01 08:13 | 48.99636 | 2.55820 | 362 ft | 16 kts | 176° |
| 2026-05-01 08:13 | 48.99607 | 2.55999 | 359 ft | 12 kts | 84° |
| 2026-05-01 08:14 | 48.99634 | 2.56546 | 366 ft | 103 kts | 85° |
| 2026-05-01 08:14 | 48.99721 | 2.58201 | 384 ft | 202 kts | 88° |
| 2026-05-01 08:14 | 48.99866 | 2.60418 | 1543 ft | 209 kts | 83° |
| 2026-05-01 08:14 | 49.00035 | 2.62592 | 2634 ft | 205 kts | 88° |
| 2026-05-01 08:15 | 49.00128 | 2.64865 | 2897 ft | 226 kts | 87° |
| 2026-05-01 08:15 | 49.00373 | 2.70056 | 3697 ft | 261 kts | 88° |
| 2026-05-01 08:15 | 49.00509 | 2.72841 | 4394 ft | 266 kts | 87° |
| 2026-05-01 08:16 | 49.00650 | 2.75668 | 5179 ft | 269 kts | 87° |
| 2026-05-01 08:16 | 49.00744 | 2.78524 | 5918 ft | 270 kts | 95° |
| 2026-05-01 08:16 | 49.00496 | 2.81393 | 6601 ft | 273 kts | 103° |
| 2026-05-01 08:16 | 49.00257 | 2.83284 | 7088 ft | 274 kts | 102° |
| 2026-05-01 08:17 | 48.99791 | 2.87131 | 8022 ft | 278 kts | 101° |
| 2026-05-01 08:17 | 48.99574 | 2.89061 | 8495 ft | 280 kts | 101° |
| 2026-05-01 08:17 | 48.99151 | 2.92962 | 9447 ft | 283 kts | 101° |
| 2026-05-01 08:17 | 48.98938 | 2.94958 | 9918 ft | 285 kts | 101° |
| 2026-05-01 08:18 | 48.98565 | 2.98957 | 10679 ft | 295 kts | 99° |
| 2026-05-01 08:18 | 48.98108 | 3.04470 | 10987 ft | 335 kts | 98° |
| 2026-05-01 08:19 | 48.97490 | 3.11949 | 11675 ft | 370 kts | 98° |
| 2026-05-01 08:19 | 48.97165 | 3.15866 | 12480 ft | 376 kts | 99° |
| 2026-05-01 08:19 | 48.96835 | 3.19814 | 13449 ft | 378 kts | 99° |
| 2026-05-01 08:19 | 48.96499 | 3.23798 | 14378 ft | 381 kts | 99° |
| 2026-05-01 08:20 | 48.96156 | 3.27816 | 15169 ft | 386 kts | 99° |
| 2026-05-01 08:20 | 48.95805 | 3.31903 | 15953 ft | 391 kts | 99° |
| 2026-05-01 08:20 | 48.95455 | 3.35975 | 16741 ft | 395 kts | 99° |
| 2026-05-01 08:20 | 48.95096 | 3.40138 | 17544 ft | 399 kts | 99° |
| 2026-05-01 08:21 | 48.94730 | 3.44352 | 18323 ft | 403 kts | 99° |
| 2026-05-01 08:21 | 48.94361 | 3.48598 | 19043 ft | 407 kts | 100° |
| 2026-05-01 08:21 | 48.93985 | 3.52899 | 19743 ft | 411 kts | 99° |
| 2026-05-01 08:21 | 48.93633 | 3.57186 | 20437 ft | 414 kts | 98° |
| 2026-05-01 08:22 | 48.93374 | 3.61588 | 21161 ft | 418 kts | 96° |
| 2026-05-01 08:22 | 48.93158 | 3.66009 | 21867 ft | 421 kts | 96° |
| 2026-05-01 08:22 | 48.92948 | 3.70461 | 22547 ft | 424 kts | 96° |
| 2026-05-01 08:22 | 48.92728 | 3.74980 | 23234 ft | 427 kts | 96° |
| 2026-05-01 08:23 | 48.92497 | 3.79504 | 23884 ft | 430 kts | 97° |
| 2026-05-01 08:23 | 48.92256 | 3.84055 | 24423 ft | 434 kts | 97° |
| 2026-05-01 08:23 | 48.92010 | 3.88591 | 24937 ft | 437 kts | 97° |
| 2026-05-01 08:23 | 48.91755 | 3.93214 | 25448 ft | 440 kts | 97° |
| 2026-05-01 08:24 | 48.91497 | 3.97868 | 25959 ft | 443 kts | 97° |
| 2026-05-01 08:24 | 48.91236 | 4.02552 | 26474 ft | 446 kts | 97° |
| 2026-05-01 08:24 | 48.90970 | 4.07280 | 26959 ft | 449 kts | 97° |
| 2026-05-01 08:24 | 48.90706 | 4.11965 | 27421 ft | 452 kts | 97° |
| 2026-05-01 08:25 | 48.90434 | 4.16743 | 27884 ft | 455 kts | 97° |
| 2026-05-01 08:25 | 48.90088 | 4.21589 | 28301 ft | 456 kts | 102° |
| 2026-05-01 08:25 | 48.89104 | 4.26094 | 28626 ft | 456 kts | 119° |
| 2026-05-01 08:25 | 48.87487 | 4.30234 | 28912 ft | 457 kts | 122° |
| 2026-05-01 08:26 | 48.85855 | 4.34431 | 29248 ft | 461 kts | 121° |
| 2026-05-01 08:26 | 48.84259 | 4.38658 | 29601 ft | 464 kts | 120° |
| 2026-05-01 08:26 | 48.82661 | 4.42963 | 29900 ft | 468 kts | 120° |
| 2026-05-01 08:26 | 48.81065 | 4.47303 | 30264 ft | 471 kts | 120° |
| 2026-05-01 08:27 | 48.79469 | 4.51653 | 30663 ft | 470 kts | 120° |
| 2026-05-01 08:27 | 48.77907 | 4.55910 | 31127 ft | 467 kts | 120° |
| 2026-05-01 08:27 | 48.76324 | 4.60212 | 31577 ft | 466 kts | 120° |
| 2026-05-01 08:27 | 48.74746 | 4.64490 | 31974 ft | 465 kts | 120° |
| 2026-05-01 08:28 | 48.73162 | 4.68771 | 32363 ft | 465 kts | 120° |
| 2026-05-01 08:28 | 48.71582 | 4.73034 | 32709 ft | 464 kts | 120° |
| 2026-05-01 08:28 | 48.69998 | 4.77299 | 33093 ft | 463 kts | 120° |
| 2026-05-01 08:28 | 48.68415 | 4.81556 | 33397 ft | 464 kts | 120° |
| 2026-05-01 08:29 | 48.66824 | 4.85825 | 33645 ft | 466 kts | 120° |
| 2026-05-01 08:29 | 48.65250 | 4.90044 | 33986 ft | 465 kts | 120° |
| 2026-05-01 08:29 | 48.63653 | 4.94317 | 34366 ft | 463 kts | 120° |
| 2026-05-01 08:29 | 48.62069 | 4.98549 | 34663 ft | 463 kts | 120° |
| 2026-05-01 08:30 | 48.60478 | 5.02792 | 34893 ft | 463 kts | 120° |
| 2026-05-01 08:30 | 48.58887 | 5.07028 | 35123 ft | 464 kts | 120° |
| 2026-05-01 08:30 | 48.57285 | 5.11288 | 35195 ft | 468 kts | 120° |
| 2026-05-01 08:31 | 48.54077 | 5.19796 | 35203 ft | 466 kts | 120° |
| 2026-05-01 08:31 | 48.50882 | 5.28240 | 35226 ft | 462 kts | 120° |
| 2026-05-01 08:32 | 48.47688 | 5.36658 | 35278 ft | 462 kts | 120° |
| 2026-05-01 08:32 | 48.44487 | 5.45066 | 35280 ft | 463 kts | 120° |
| 2026-05-01 08:33 | 48.41273 | 5.53484 | 35284 ft | 464 kts | 120° |
| 2026-05-01 08:33 | 48.38044 | 5.61913 | 35270 ft | 465 kts | 120° |
| 2026-05-01 08:34 | 48.34801 | 5.70355 | 35290 ft | 467 kts | 120° |
| 2026-05-01 08:34 | 48.31549 | 5.78795 | 35287 ft | 467 kts | 120° |
| 2026-05-01 08:35 | 48.28581 | 5.87411 | 35306 ft | 468 kts | 115° |
| 2026-05-01 08:35 | 48.25841 | 5.96294 | 35289 ft | 468 kts | 115° |
| 2026-05-01 08:36 | 48.23098 | 6.05130 | 35292 ft | 467 kts | 115° |
| 2026-05-01 08:36 | 48.20326 | 6.13865 | 35295 ft | 468 kts | 115° |
| 2026-05-01 08:37 | 48.17501 | 6.22665 | 35287 ft | 468 kts | 115° |
| 2026-05-01 08:37 | 48.14662 | 6.31469 | 35285 ft | 468 kts | 115° |
| 2026-05-01 08:38 | 48.11839 | 6.40200 | 35287 ft | 468 kts | 116° |
| 2026-05-01 08:38 | 48.08992 | 6.48977 | 35287 ft | 469 kts | 115° |
| 2026-05-01 08:39 | 48.06128 | 6.57781 | 35279 ft | 470 kts | 115° |
| 2026-05-01 08:39 | 48.03259 | 6.66567 | 35284 ft | 471 kts | 115° |
| 2026-05-01 08:40 | 47.98953 | 6.79696 | 35278 ft | 471 kts | 116° |
| 2026-05-01 08:40 | 47.96064 | 6.88469 | 35285 ft | 471 kts | 115° |
| 2026-05-01 08:41 | 47.93161 | 6.97253 | 35310 ft | 471 kts | 115° |
| 2026-05-01 08:41 | 47.90252 | 7.06026 | 35310 ft | 471 kts | 115° |
| 2026-05-01 08:42 | 47.87355 | 7.14732 | 35307 ft | 472 kts | 115° |
| 2026-05-01 08:42 | 47.84427 | 7.23502 | 35315 ft | 472 kts | 115° |
| 2026-05-01 08:43 | 47.81486 | 7.32284 | 35317 ft | 473 kts | 115° |
| 2026-05-01 08:43 | 47.78569 | 7.40967 | 35321 ft | 473 kts | 115° |
| 2026-05-01 08:44 | 47.75565 | 7.49660 | 35310 ft | 474 kts | 121° |
| 2026-05-01 08:44 | 47.73526 | 7.53515 | 35328 ft | 476 kts | 134° |
| 2026-05-01 08:44 | 47.71023 | 7.56687 | 35304 ft | 479 kts | 144° |
| 2026-05-01 08:45 | 47.65081 | 7.61224 | 35314 ft | 482 kts | 153° |
| 2026-05-01 08:45 | 47.58977 | 7.65367 | 35326 ft | 486 kts | 153° |
| 2026-05-01 08:46 | 47.52867 | 7.69580 | 35325 ft | 488 kts | 153° |
| 2026-05-01 08:46 | 47.46691 | 7.73888 | 35324 ft | 489 kts | 153° |
| 2026-05-01 08:47 | 47.40531 | 7.78192 | 35322 ft | 488 kts | 153° |
| 2026-05-01 08:47 | 47.34420 | 7.82450 | 35333 ft | 487 kts | 153° |
| 2026-05-01 08:48 | 47.28295 | 7.86704 | 35335 ft | 485 kts | 153° |
| 2026-05-01 08:48 | 47.22215 | 7.90914 | 35333 ft | 483 kts | 153° |
| 2026-05-01 08:49 | 47.16115 | 7.95127 | 35333 ft | 482 kts | 153° |
| 2026-05-01 08:49 | 47.10067 | 7.99295 | 35333 ft | 482 kts | 153° |
| 2026-05-01 08:50 | 47.03986 | 8.03474 | 35340 ft | 482 kts | 153° |
| 2026-05-01 08:50 | 46.97903 | 8.07644 | 35321 ft | 483 kts | 153° |
| 2026-05-01 08:51 | 46.91819 | 8.11805 | 35322 ft | 483 kts | 153° |
| 2026-05-01 08:51 | 46.85720 | 8.15966 | 35320 ft | 484 kts | 153° |
| 2026-05-01 08:52 | 46.79627 | 8.20110 | 35327 ft | 486 kts | 153° |
| 2026-05-01 08:52 | 46.73465 | 8.24294 | 35324 ft | 488 kts | 153° |
| 2026-05-01 08:53 | 46.67329 | 8.28446 | 35314 ft | 489 kts | 153° |
| 2026-05-01 08:53 | 46.61151 | 8.32618 | 35317 ft | 489 kts | 153° |
| 2026-05-01 08:54 | 46.54991 | 8.36767 | 35323 ft | 488 kts | 153° |
| 2026-05-01 08:54 | 46.48826 | 8.40910 | 35349 ft | 488 kts | 153° |
| 2026-05-01 08:55 | 46.42688 | 8.45023 | 35344 ft | 488 kts | 153° |
| 2026-05-01 08:55 | 46.36501 | 8.49158 | 35363 ft | 489 kts | 153° |
| 2026-05-01 08:56 | 46.30288 | 8.53304 | 35385 ft | 491 kts | 153° |
| 2026-05-01 08:56 | 46.24058 | 8.57448 | 35394 ft | 493 kts | 153° |
| 2026-05-01 08:57 | 46.17879 | 8.61550 | 35400 ft | 493 kts | 153° |
| 2026-05-01 08:57 | 46.11998 | 8.66439 | 35384 ft | 484 kts | 133° |
| 2026-05-01 08:58 | 46.09861 | 8.70157 | 35409 ft | 479 kts | 119° |
| 2026-05-01 08:58 | 46.08387 | 8.74419 | 35402 ft | 473 kts | 106° |
| 2026-05-01 08:58 | 46.06388 | 8.83454 | 35406 ft | 474 kts | 104° |
| 2026-05-01 08:59 | 46.04390 | 8.92466 | 35402 ft | 476 kts | 104° |
| 2026-05-01 08:59 | 46.02332 | 9.01478 | 35402 ft | 476 kts | 105° |
| 2026-05-01 09:00 | 46.00586 | 9.08995 | 35402 ft | 476 kts | 105° |
| 2026-05-01 09:00 | 45.98118 | 9.19546 | 35433 ft | 475 kts | 104° |
| 2026-05-01 09:01 | 45.96032 | 9.28428 | 35412 ft | 475 kts | 105° |
| 2026-05-01 09:01 | 45.93912 | 9.37424 | 35387 ft | 473 kts | 105° |
| 2026-05-01 09:02 | 45.92154 | 9.44857 | 35398 ft | 473 kts | 105° |
| 2026-05-01 09:02 | 45.90033 | 9.53788 | 35406 ft | 473 kts | 104° |
| 2026-05-01 09:03 | 45.87906 | 9.62715 | 35412 ft | 472 kts | 104° |
| 2026-05-01 09:03 | 45.85770 | 9.71641 | 35401 ft | 473 kts | 104° |
| 2026-05-01 09:04 | 45.83626 | 9.80568 | 35386 ft | 472 kts | 104° |
| 2026-05-01 09:04 | 45.81493 | 9.89403 | 35418 ft | 471 kts | 104° |
| 2026-05-01 09:05 | 45.79338 | 9.98304 | 35384 ft | 472 kts | 104° |
| 2026-05-01 09:05 | 45.77177 | 10.07194 | 35382 ft | 472 kts | 104° |
| 2026-05-01 09:06 | 45.75018 | 10.16037 | 35384 ft | 472 kts | 104° |
| 2026-05-01 09:06 | 45.72836 | 10.24936 | 35409 ft | 471 kts | 104° |
| 2026-05-01 09:07 | 45.70661 | 10.33781 | 35378 ft | 469 kts | 104° |
| 2026-05-01 09:07 | 45.68485 | 10.42584 | 35374 ft | 470 kts | 104° |
| 2026-05-01 09:08 | 45.66317 | 10.51329 | 35386 ft | 470 kts | 104° |
| 2026-05-01 09:08 | 45.64120 | 10.60162 | 35386 ft | 471 kts | 104° |
| 2026-05-01 09:09 | 45.61912 | 10.68995 | 35396 ft | 472 kts | 104° |
| 2026-05-01 09:09 | 45.59692 | 10.77845 | 35393 ft | 472 kts | 104° |
| 2026-05-01 09:10 | 45.57469 | 10.86669 | 35393 ft | 472 kts | 103° |
| 2026-05-01 09:10 | 45.55253 | 10.95435 | 35394 ft | 471 kts | 104° |
| 2026-05-01 09:11 | 45.53020 | 11.04231 | 35395 ft | 470 kts | 103° |
| 2026-05-01 09:11 | 45.50787 | 11.12997 | 35398 ft | 469 kts | 103° |
| 2026-05-01 09:12 | 45.48564 | 11.21690 | 35394 ft | 468 kts | 104° |
| 2026-05-01 09:12 | 45.46320 | 11.30435 | 35386 ft | 468 kts | 104° |
| 2026-05-01 09:13 | 45.44076 | 11.39148 | 35386 ft | 468 kts | 104° |
| 2026-05-01 09:13 | 45.41838 | 11.47802 | 35393 ft | 468 kts | 104° |
| 2026-05-01 09:14 | 45.39577 | 11.56514 | 35391 ft | 468 kts | 104° |
| 2026-05-01 09:14 | 45.37308 | 11.65226 | 35399 ft | 469 kts | 104° |
| 2026-05-01 09:15 | 45.35045 | 11.73880 | 35408 ft | 470 kts | 104° |
| 2026-05-01 09:15 | 45.32762 | 11.82580 | 35403 ft | 470 kts | 104° |
| 2026-05-01 09:16 | 45.30465 | 11.91296 | 35402 ft | 469 kts | 104° |
| 2026-05-01 09:17 | 45.27036 | 12.04251 | 35446 ft | 468 kts | 104° |
| 2026-05-01 09:17 | 45.23579 | 12.17245 | 35407 ft | 468 kts | 104° |
| 2026-05-01 09:18 | 45.20129 | 12.30140 | 35404 ft | 466 kts | 104° |
| 2026-05-01 09:19 | 45.16660 | 12.43036 | 35430 ft | 466 kts | 103° |
| 2026-05-01 09:20 | 45.13186 | 12.55884 | 35399 ft | 466 kts | 104° |
| 2026-05-01 09:21 | 45.08520 | 12.73031 | 35389 ft | 466 kts | 104° |
| 2026-05-01 09:21 | 45.05003 | 12.85876 | 35394 ft | 466 kts | 104° |
| 2026-05-01 09:22 | 45.00315 | 13.02904 | 35388 ft | 466 kts | 104° |
| 2026-05-01 09:23 | 44.97440 | 13.15883 | 35391 ft | 459 kts | 95° |
| 2026-05-01 09:24 | 44.95377 | 13.29118 | 35379 ft | 460 kts | 96° |
| 2026-05-01 09:25 | 44.92549 | 13.46719 | 35414 ft | 461 kts | 96° |
| 2026-05-01 09:26 | 44.90381 | 13.59994 | 35372 ft | 462 kts | 96° |
| 2026-05-01 09:26 | 44.88207 | 13.73203 | 35375 ft | 462 kts | 96° |
| 2026-05-01 09:27 | 44.86017 | 13.86421 | 35394 ft | 463 kts | 97° |
| 2026-05-01 09:28 | 44.84539 | 13.95281 | 35380 ft | 463 kts | 97° |
| 2026-05-01 09:28 | 44.83056 | 14.04119 | 35374 ft | 462 kts | 97° |
| 2026-05-01 09:29 | 44.80836 | 14.17274 | 35350 ft | 462 kts | 97° |
| 2026-05-01 09:30 | 44.78589 | 14.30493 | 35353 ft | 462 kts | 97° |
| 2026-05-01 09:30 | 44.76327 | 14.43700 | 35353 ft | 463 kts | 97° |
| 2026-05-01 09:31 | 44.74813 | 14.52480 | 35346 ft | 464 kts | 97° |
| 2026-05-01 09:32 | 44.72516 | 14.65731 | 35353 ft | 464 kts | 98° |
| 2026-05-01 09:32 | 44.70207 | 14.78940 | 35346 ft | 465 kts | 98° |
| 2026-05-01 09:33 | 44.68653 | 14.87774 | 35348 ft | 464 kts | 98° |
| 2026-05-01 09:34 | 44.66325 | 15.00933 | 35344 ft | 463 kts | 98° |
| 2026-05-01 09:34 | 44.63983 | 15.14078 | 35353 ft | 464 kts | 98° |
| 2026-05-01 09:35 | 44.61606 | 15.27328 | 35364 ft | 466 kts | 99° |
| 2026-05-01 09:36 | 44.60022 | 15.36099 | 35356 ft | 466 kts | 99° |
| 2026-05-01 09:36 | 44.58419 | 15.44930 | 35349 ft | 467 kts | 99° |
| 2026-05-01 09:37 | 44.56813 | 15.53738 | 35342 ft | 467 kts | 99° |
| 2026-05-01 09:37 | 44.54381 | 15.67002 | 35342 ft | 469 kts | 99° |
| 2026-05-01 09:38 | 44.51926 | 15.80293 | 35335 ft | 469 kts | 99° |
| 2026-05-01 09:39 | 44.49465 | 15.93522 | 35346 ft | 470 kts | 99° |
| 2026-05-01 09:39 | 44.47804 | 16.02398 | 35342 ft | 470 kts | 100° |
| 2026-05-01 09:40 | 44.45294 | 16.15735 | 35330 ft | 472 kts | 100° |
| 2026-05-01 09:41 | 44.43625 | 16.24551 | 35330 ft | 471 kts | 100° |
| 2026-05-01 09:41 | 44.41096 | 16.37827 | 35347 ft | 472 kts | 101° |
| 2026-05-01 09:42 | 44.39394 | 16.46714 | 35338 ft | 473 kts | 101° |
| 2026-05-01 09:43 | 44.35973 | 16.64447 | 35341 ft | 473 kts | 101° |
| 2026-05-01 09:43 | 44.34244 | 16.73354 | 35342 ft | 474 kts | 101° |
| 2026-05-01 09:44 | 44.31646 | 16.86658 | 35337 ft | 476 kts | 101° |
| 2026-05-01 09:45 | 44.29890 | 16.95600 | 35341 ft | 477 kts | 101° |
| 2026-05-01 09:45 | 44.27239 | 17.09022 | 35349 ft | 478 kts | 102° |
| 2026-05-01 09:46 | 44.25470 | 17.17917 | 35347 ft | 478 kts | 102° |
| 2026-05-01 09:46 | 44.23684 | 17.26869 | 35357 ft | 478 kts | 102° |
| 2026-05-01 09:47 | 44.22194 | 17.34306 | 35332 ft | 478 kts | 102° |
| 2026-05-01 09:47 | 44.20103 | 17.44693 | 35341 ft | 479 kts | 102° |
| 2026-05-01 09:48 | 44.18291 | 17.53650 | 35345 ft | 479 kts | 102° |
| 2026-05-01 09:48 | 44.16780 | 17.61092 | 35345 ft | 480 kts | 102° |
| 2026-05-01 09:49 | 44.14659 | 17.71485 | 35344 ft | 480 kts | 102° |
| 2026-05-01 09:49 | 44.13129 | 17.78956 | 35337 ft | 481 kts | 103° |
| 2026-05-01 09:50 | 44.11283 | 17.87932 | 35330 ft | 482 kts | 102° |
| 2026-05-01 09:50 | 44.09426 | 17.96912 | 35329 ft | 483 kts | 103° |
| 2026-05-01 09:51 | 44.07566 | 18.05873 | 35349 ft | 482 kts | 103° |
| 2026-05-01 09:51 | 44.05691 | 18.14864 | 35327 ft | 484 kts | 103° |
| 2026-05-01 09:52 | 44.03821 | 18.23796 | 35326 ft | 484 kts | 103° |
| 2026-05-01 09:52 | 44.01938 | 18.32751 | 35317 ft | 484 kts | 103° |
| 2026-05-01 09:53 | 44.00037 | 18.41746 | 35310 ft | 484 kts | 103° |
| 2026-05-01 09:53 | 43.98132 | 18.50725 | 35327 ft | 484 kts | 103° |
| 2026-05-01 09:54 | 43.96234 | 18.59634 | 35312 ft | 484 kts | 103° |
| 2026-05-01 09:54 | 43.94317 | 18.68595 | 35321 ft | 483 kts | 103° |
| 2026-05-01 09:55 | 43.92393 | 18.77550 | 35319 ft | 484 kts | 104° |
| 2026-05-01 09:55 | 43.90473 | 18.86444 | 35318 ft | 484 kts | 104° |
| 2026-05-01 09:56 | 43.88532 | 18.95400 | 35313 ft | 485 kts | 104° |
| 2026-05-01 09:56 | 43.86581 | 19.04363 | 35314 ft | 485 kts | 104° |
| 2026-05-01 09:57 | 43.84621 | 19.13331 | 35322 ft | 486 kts | 104° |
| 2026-05-01 09:57 | 43.82650 | 19.22311 | 35318 ft | 487 kts | 104° |
| 2026-05-01 09:58 | 43.80679 | 19.31250 | 35310 ft | 488 kts | 104° |
| 2026-05-01 09:58 | 43.78694 | 19.40216 | 35302 ft | 487 kts | 104° |
| 2026-05-01 09:59 | 43.76693 | 19.49220 | 35313 ft | 494 kts | 104° |
| 2026-05-01 09:59 | 43.74653 | 19.58370 | 35317 ft | 502 kts | 104° |
| 2026-05-01 10:00 | 43.72571 | 19.67656 | 35317 ft | 506 kts | 105° |
| 2026-05-01 10:00 | 43.70481 | 19.76932 | 35318 ft | 508 kts | 105° |
| 2026-05-01 10:01 | 43.68370 | 19.86261 | 35318 ft | 508 kts | 105° |
| 2026-05-01 10:01 | 43.66255 | 19.95574 | 35309 ft | 507 kts | 104° |
| 2026-05-01 10:02 | 43.64149 | 20.04805 | 35313 ft | 506 kts | 105° |
| 2026-05-01 10:02 | 43.62027 | 20.14072 | 35325 ft | 505 kts | 105° |
| 2026-05-01 10:03 | 43.59900 | 20.23320 | 35316 ft | 506 kts | 105° |
| 2026-05-01 10:03 | 43.57765 | 20.32563 | 35327 ft | 506 kts | 105° |
| 2026-05-01 10:04 | 43.55618 | 20.41816 | 35327 ft | 506 kts | 105° |
| 2026-05-01 10:04 | 43.53463 | 20.51077 | 35321 ft | 507 kts | 106° |
| 2026-05-01 10:05 | 43.51294 | 20.60346 | 35327 ft | 508 kts | 106° |
| 2026-05-01 10:05 | 43.49117 | 20.69616 | 35324 ft | 509 kts | 106° |
| 2026-05-01 10:06 | 43.46941 | 20.78842 | 35322 ft | 510 kts | 106° |
| 2026-05-01 10:06 | 43.44737 | 20.88150 | 35321 ft | 511 kts | 106° |
| 2026-05-01 10:07 | 43.42519 | 20.97476 | 35319 ft | 512 kts | 106° |
| 2026-05-01 10:07 | 43.40307 | 21.06738 | 35324 ft | 512 kts | 107° |
| 2026-05-01 10:08 | 43.36942 | 21.20757 | 35319 ft | 515 kts | 107° |
| 2026-05-01 10:09 | 43.34694 | 21.30076 | 35307 ft | 517 kts | 107° |
| 2026-05-01 10:09 | 43.32417 | 21.39474 | 35318 ft | 518 kts | 107° |
| 2026-05-01 10:10 | 43.30133 | 21.48864 | 35309 ft | 518 kts | 107° |
| 2026-05-01 10:10 | 43.26695 | 21.62923 | 35311 ft | 518 kts | 107° |
| 2026-05-01 10:11 | 43.24390 | 21.72301 | 35317 ft | 517 kts | 107° |
| 2026-05-01 10:11 | 43.22095 | 21.81603 | 35318 ft | 517 kts | 108° |
| 2026-05-01 10:12 | 43.19780 | 21.90946 | 35311 ft | 517 kts | 108° |
| 2026-05-01 10:13 | 43.16296 | 22.04939 | 35308 ft | 517 kts | 108° |
| 2026-05-01 10:13 | 43.13960 | 22.14275 | 35294 ft | 517 kts | 108° |
| 2026-05-01 10:14 | 43.10451 | 22.28225 | 35277 ft | 518 kts | 108° |
| 2026-05-01 10:14 | 43.08093 | 22.37554 | 35285 ft | 518 kts | 108° |
| 2026-05-01 10:15 | 43.05739 | 22.46833 | 35286 ft | 519 kts | 108° |
| 2026-05-01 10:15 | 43.03361 | 22.56168 | 35283 ft | 519 kts | 108° |
| 2026-05-01 10:16 | 43.00977 | 22.65494 | 35270 ft | 519 kts | 108° |
| 2026-05-01 10:17 | 42.97886 | 22.79635 | 35266 ft | 519 kts | 98° |
| 2026-05-01 10:17 | 42.97253 | 22.94280 | 35298 ft | 517 kts | 88° |
| 2026-05-01 10:18 | 42.97398 | 23.08983 | 35283 ft | 519 kts | 88° |
| 2026-05-01 10:19 | 42.97448 | 23.18868 | 35322 ft | 520 kts | 89° |
| 2026-05-01 10:19 | 42.97467 | 23.28681 | 35304 ft | 520 kts | 89° |
| 2026-05-01 10:20 | 42.97474 | 23.43491 | 35306 ft | 519 kts | 89° |
| 2026-05-01 10:20 | 42.97471 | 23.53281 | 35308 ft | 519 kts | 89° |
| 2026-05-01 10:21 | 42.97452 | 23.68035 | 35316 ft | 520 kts | 89° |
| 2026-05-01 10:22 | 42.97414 | 23.82880 | 35320 ft | 521 kts | 89° |
| 2026-05-01 10:23 | 42.97356 | 23.97762 | 35329 ft | 522 kts | 89° |
| 2026-05-01 10:23 | 42.97279 | 24.12553 | 35339 ft | 521 kts | 89° |
| 2026-05-01 10:24 | 42.97147 | 24.32356 | 35341 ft | 520 kts | 90° |
| 2026-05-01 10:25 | 42.96981 | 24.52129 | 35345 ft | 520 kts | 90° |
| 2026-05-01 10:26 | 42.96886 | 24.61929 | 35349 ft | 520 kts | 90° |
| 2026-05-01 10:27 | 42.96669 | 24.81748 | 35350 ft | 522 kts | 90° |
| 2026-05-01 10:28 | 42.96482 | 24.96605 | 35345 ft | 523 kts | 90° |
| 2026-05-01 10:28 | 42.96277 | 25.11512 | 35340 ft | 523 kts | 90° |
| 2026-05-01 10:29 | 42.96052 | 25.26407 | 35327 ft | 522 kts | 90° |
| 2026-05-01 10:30 | 42.95724 | 25.46161 | 35317 ft | 521 kts | 91° |
| 2026-05-01 10:31 | 42.95395 | 25.64191 | 35322 ft | 520 kts | 91° |
| 2026-05-01 10:32 | 42.95104 | 25.79021 | 35310 ft | 521 kts | 91° |
| 2026-05-01 10:33 | 42.94684 | 25.98801 | 35314 ft | 522 kts | 91° |
| 2026-05-01 10:34 | 42.94347 | 26.13680 | 35289 ft | 522 kts | 91° |
| 2026-05-01 10:34 | 42.94112 | 26.23536 | 35286 ft | 522 kts | 91° |
| 2026-05-01 10:35 | 42.93743 | 26.38402 | 35280 ft | 523 kts | 91° |
| 2026-05-01 10:35 | 42.93485 | 26.48345 | 35282 ft | 523 kts | 92° |
| 2026-05-01 10:36 | 42.93083 | 26.63205 | 35273 ft | 524 kts | 92° |
| 2026-05-01 10:37 | 42.92803 | 26.73187 | 35270 ft | 526 kts | 92° |
| 2026-05-01 10:37 | 42.92367 | 26.88138 | 35271 ft | 526 kts | 92° |
| 2026-05-01 10:38 | 42.92067 | 26.98040 | 35264 ft | 525 kts | 92° |
| 2026-05-01 10:38 | 42.91756 | 27.08019 | 35261 ft | 525 kts | 92° |
| 2026-05-01 10:39 | 42.91437 | 27.17972 | 35262 ft | 525 kts | 92° |
| 2026-05-01 10:39 | 42.91111 | 27.27892 | 35260 ft | 525 kts | 92° |
| 2026-05-01 10:40 | 42.90775 | 27.37857 | 35257 ft | 526 kts | 93° |
| 2026-05-01 10:40 | 42.90429 | 27.47848 | 35263 ft | 527 kts | 93° |
| 2026-05-01 10:41 | 42.90076 | 27.57798 | 35259 ft | 527 kts | 93° |
| 2026-05-01 10:42 | 42.89529 | 27.72776 | 35256 ft | 528 kts | 93° |
| 2026-05-01 10:42 | 42.89151 | 27.82801 | 35264 ft | 529 kts | 93° |
| 2026-05-01 10:43 | 42.88767 | 27.92772 | 35268 ft | 529 kts | 94° |
| 2026-05-01 10:43 | 42.88373 | 28.02794 | 35261 ft | 529 kts | 94° |
| 2026-05-01 10:44 | 42.87930 | 28.12841 | 35257 ft | 529 kts | 94° |
| 2026-05-01 10:44 | 42.87455 | 28.22811 | 35265 ft | 530 kts | 95° |
| 2026-05-01 10:45 | 42.86972 | 28.32864 | 35261 ft | 530 kts | 95° |
| 2026-05-01 10:45 | 42.86488 | 28.42898 | 35263 ft | 531 kts | 95° |
| 2026-05-01 10:46 | 42.85996 | 28.52956 | 35252 ft | 532 kts | 95° |
| 2026-05-01 10:46 | 42.85496 | 28.62973 | 35260 ft | 533 kts | 95° |
| 2026-05-01 10:47 | 42.84984 | 28.73061 | 35249 ft | 533 kts | 95° |
| 2026-05-01 10:47 | 42.84463 | 28.83155 | 35251 ft | 533 kts | 95° |
| 2026-05-01 10:48 | 42.83932 | 28.93262 | 35244 ft | 534 kts | 96° |
| 2026-05-01 10:48 | 42.83392 | 29.03366 | 35246 ft | 535 kts | 96° |
| 2026-05-01 10:49 | 42.82846 | 29.13414 | 35242 ft | 535 kts | 96° |
| 2026-05-01 10:49 | 42.82286 | 29.23547 | 35237 ft | 536 kts | 96° |
| 2026-05-01 10:50 | 42.81717 | 29.33698 | 35228 ft | 536 kts | 96° |
| 2026-05-01 10:50 | 42.81142 | 29.43781 | 35233 ft | 536 kts | 96° |
| 2026-05-01 10:51 | 42.80556 | 29.53916 | 35230 ft | 536 kts | 96° |
| 2026-05-01 10:51 | 42.79965 | 29.63973 | 35215 ft | 536 kts | 97° |
| 2026-05-01 10:52 | 42.79361 | 29.74091 | 35228 ft | 536 kts | 97° |
| 2026-05-01 10:52 | 42.78746 | 29.84245 | 35231 ft | 537 kts | 97° |
| 2026-05-01 10:53 | 42.78123 | 29.94380 | 35215 ft | 537 kts | 97° |
| 2026-05-01 10:53 | 42.77494 | 30.04478 | 35212 ft | 538 kts | 97° |
| 2026-05-01 10:54 | 42.76852 | 30.14633 | 35223 ft | 539 kts | 97° |
| 2026-05-01 10:54 | 42.76198 | 30.24821 | 35213 ft | 540 kts | 98° |
| 2026-05-01 10:55 | 42.75533 | 30.35047 | 35218 ft | 541 kts | 98° |
| 2026-05-01 10:55 | 42.74865 | 30.45193 | 35196 ft | 541 kts | 98° |
| 2026-05-01 10:56 | 42.74184 | 30.55391 | 35207 ft | 542 kts | 98° |
| 2026-05-01 10:56 | 42.73419 | 30.65587 | 35199 ft | 541 kts | 101° |
| 2026-05-01 10:57 | 42.72366 | 30.75712 | 35166 ft | 540 kts | 102° |
| 2026-05-01 10:57 | 42.71265 | 30.85830 | 35194 ft | 541 kts | 102° |
| 2026-05-01 10:58 | 42.70207 | 30.95898 | 35186 ft | 542 kts | 102° |
| 2026-05-01 10:58 | 42.69158 | 31.06067 | 35185 ft | 542 kts | 102° |
| 2026-05-01 10:59 | 42.68103 | 31.16236 | 35174 ft | 542 kts | 102° |
| 2026-05-01 10:59 | 42.67041 | 31.26330 | 35183 ft | 542 kts | 102° |
| 2026-05-01 11:00 | 42.65961 | 31.36488 | 35188 ft | 543 kts | 103° |
| 2026-05-01 11:00 | 42.64871 | 31.46658 | 35156 ft | 543 kts | 103° |
| 2026-05-01 11:01 | 42.63773 | 31.56816 | 35177 ft | 543 kts | 103° |
| 2026-05-01 11:01 | 42.62675 | 31.66893 | 35173 ft | 542 kts | 103° |
| 2026-05-01 11:02 | 42.61559 | 31.77052 | 35166 ft | 542 kts | 103° |
| 2026-05-01 11:02 | 42.60444 | 31.87112 | 35150 ft | 541 kts | 104° |
| 2026-05-01 11:03 | 42.59314 | 31.97231 | 35161 ft | 541 kts | 104° |
| 2026-05-01 11:03 | 42.58121 | 32.07324 | 35161 ft | 540 kts | 105° |
| 2026-05-01 11:04 | 42.56929 | 32.17348 | 35155 ft | 541 kts | 104° |
| 2026-05-01 11:04 | 42.55795 | 32.27439 | 35149 ft | 540 kts | 104° |
| 2026-05-01 11:05 | 42.54648 | 32.37520 | 35153 ft | 541 kts | 104° |
| 2026-05-01 11:05 | 42.53476 | 32.47591 | 35155 ft | 541 kts | 104° |
| 2026-05-01 11:06 | 42.52285 | 32.57708 | 35118 ft | 541 kts | 105° |
| 2026-05-01 11:06 | 42.51099 | 32.67724 | 35140 ft | 540 kts | 105° |
| 2026-05-01 11:07 | 42.49297 | 32.82794 | 35140 ft | 539 kts | 105° |
| 2026-05-01 11:07 | 42.48094 | 32.92760 | 35153 ft | 539 kts | 105° |
| 2026-05-01 11:08 | 42.46870 | 33.02826 | 35136 ft | 540 kts | 105° |
| 2026-05-01 11:09 | 42.45033 | 33.17828 | 35126 ft | 540 kts | 105° |
| 2026-05-01 11:09 | 42.43806 | 33.27865 | 35093 ft | 538 kts | 105° |
| 2026-05-01 11:10 | 42.41962 | 33.42822 | 35130 ft | 536 kts | 105° |
| 2026-05-01 11:10 | 42.40702 | 33.52788 | 35127 ft | 536 kts | 105° |
| 2026-05-01 11:11 | 42.39429 | 33.62737 | 35147 ft | 537 kts | 105° |
| 2026-05-01 11:11 | 42.38156 | 33.72644 | 35111 ft | 536 kts | 105° |
| 2026-05-01 11:12 | 42.36876 | 33.82563 | 35108 ft | 535 kts | 105° |
| 2026-05-01 11:12 | 42.35589 | 33.92460 | 35105 ft | 533 kts | 105° |
| 2026-05-01 11:13 | 42.34303 | 34.02311 | 35093 ft | 531 kts | 106° |
| 2026-05-01 11:13 | 42.33020 | 34.12081 | 35114 ft | 530 kts | 106° |
| 2026-05-01 11:14 | 42.31723 | 34.21891 | 35099 ft | 529 kts | 106° |
| 2026-05-01 11:14 | 42.30421 | 34.31677 | 35104 ft | 528 kts | 106° |
| 2026-05-01 11:15 | 42.29117 | 34.41403 | 35099 ft | 528 kts | 106° |
| 2026-05-01 11:15 | 42.28009 | 34.49516 | 35098 ft | 528 kts | 106° |
| 2026-05-01 11:16 | 42.26663 | 34.59273 | 35106 ft | 528 kts | 106° |
| 2026-05-01 11:16 | 42.25088 | 34.70647 | 35070 ft | 529 kts | 106° |
| 2026-05-01 11:17 | 42.23955 | 34.78790 | 35106 ft | 530 kts | 106° |
| 2026-05-01 11:17 | 42.22580 | 34.88623 | 35102 ft | 533 kts | 106° |
| 2026-05-01 11:18 | 42.21209 | 34.98414 | 35091 ft | 534 kts | 106° |
| 2026-05-01 11:18 | 42.19821 | 35.08273 | 35062 ft | 533 kts | 106° |
| 2026-05-01 11:19 | 42.18436 | 35.18047 | 35073 ft | 528 kts | 106° |
| 2026-05-01 11:19 | 42.17050 | 35.27753 | 35071 ft | 525 kts | 106° |
| 2026-05-01 11:20 | 42.15667 | 35.37376 | 35076 ft | 524 kts | 107° |
| 2026-05-01 11:20 | 42.14272 | 35.47027 | 35083 ft | 524 kts | 106° |
| 2026-05-01 11:21 | 42.12871 | 35.56698 | 35075 ft | 526 kts | 106° |
| 2026-05-01 11:21 | 42.11459 | 35.66400 | 35071 ft | 528 kts | 107° |
| 2026-05-01 11:22 | 42.10036 | 35.76116 | 35046 ft | 529 kts | 107° |
| 2026-05-01 11:22 | 42.08611 | 35.85791 | 35058 ft | 529 kts | 107° |
| 2026-05-01 11:23 | 42.07167 | 35.95531 | 35061 ft | 528 kts | 107° |
| 2026-05-01 11:23 | 42.05732 | 36.05148 | 35059 ft | 528 kts | 107° |
| 2026-05-01 11:24 | 42.04274 | 36.14862 | 35041 ft | 526 kts | 107° |
| 2026-05-01 11:25 | 42.02095 | 36.29271 | 35054 ft | 525 kts | 107° |
| 2026-05-01 11:25 | 41.99890 | 36.43715 | 35044 ft | 524 kts | 107° |
| 2026-05-01 11:26 | 41.97679 | 36.58078 | 35042 ft | 525 kts | 107° |
| 2026-05-01 11:27 | 41.96191 | 36.67672 | 35039 ft | 525 kts | 107° |
| 2026-05-01 11:27 | 41.94689 | 36.77300 | 35042 ft | 525 kts | 107° |
| 2026-05-01 11:28 | 41.93188 | 36.86863 | 35035 ft | 525 kts | 107° |
| 2026-05-01 11:28 | 41.91675 | 36.96462 | 35024 ft | 525 kts | 107° |
| 2026-05-01 11:29 | 41.90176 | 37.11048 | 35027 ft | 532 kts | 95° |
| 2026-05-01 11:30 | 41.90052 | 37.25889 | 35016 ft | 531 kts | 95° |
| 2026-05-01 11:30 | 41.89933 | 37.35834 | 35021 ft | 531 kts | 95° |
| 2026-05-01 11:31 | 41.89771 | 37.45768 | 35029 ft | 532 kts | 95° |
| 2026-05-01 11:31 | 41.89592 | 37.55693 | 35025 ft | 532 kts | 95° |
| 2026-05-01 11:32 | 41.89407 | 37.65572 | 35005 ft | 532 kts | 95° |
| 2026-05-01 11:32 | 41.89215 | 37.75514 | 35021 ft | 533 kts | 95° |
| 2026-05-01 11:33 | 41.89015 | 37.85476 | 35009 ft | 533 kts | 95° |
| 2026-05-01 11:33 | 41.88806 | 37.95446 | 35011 ft | 534 kts | 95° |
| 2026-05-01 11:34 | 41.88590 | 38.05353 | 34996 ft | 534 kts | 95° |
| 2026-05-01 11:34 | 41.88363 | 38.15331 | 35002 ft | 534 kts | 96° |
| 2026-05-01 11:35 | 41.88128 | 38.25294 | 35008 ft | 534 kts | 96° |
| 2026-05-01 11:35 | 41.87886 | 38.35205 | 35003 ft | 534 kts | 96° |
| 2026-05-01 11:36 | 41.87634 | 38.45172 | 34979 ft | 533 kts | 96° |
| 2026-05-01 11:36 | 41.87374 | 38.55123 | 34999 ft | 532 kts | 96° |
| 2026-05-01 11:37 | 41.87107 | 38.65002 | 34998 ft | 532 kts | 96° |
| 2026-05-01 11:37 | 41.86830 | 38.74925 | 34996 ft | 531 kts | 96° |
| 2026-05-01 11:38 | 41.86545 | 38.84816 | 34997 ft | 531 kts | 96° |
| 2026-05-01 11:38 | 41.86252 | 38.94727 | 34992 ft | 531 kts | 96° |
| 2026-05-01 11:39 | 41.85950 | 39.04644 | 35001 ft | 531 kts | 96° |
| 2026-05-01 11:39 | 41.85638 | 39.14569 | 34999 ft | 532 kts | 96° |
| 2026-05-01 11:40 | 41.85321 | 39.24427 | 35000 ft | 532 kts | 96° |
| 2026-05-01 11:40 | 41.84993 | 39.34357 | 34986 ft | 531 kts | 96° |
| 2026-05-01 11:41 | 41.84660 | 39.44199 | 34997 ft | 531 kts | 96° |
| 2026-05-01 11:41 | 41.84318 | 39.54088 | 34989 ft | 531 kts | 96° |
| 2026-05-01 11:42 | 41.83978 | 39.63982 | 34991 ft | 530 kts | 96° |
| 2026-05-01 11:42 | 41.83636 | 39.73869 | 34979 ft | 530 kts | 96° |
| 2026-05-01 11:43 | 41.83283 | 39.83768 | 34982 ft | 530 kts | 96° |
| 2026-05-01 11:43 | 41.82923 | 39.93585 | 34983 ft | 530 kts | 96° |
| 2026-05-01 11:44 | 41.82366 | 40.08410 | 34973 ft | 531 kts | 96° |
| 2026-05-01 11:44 | 41.81975 | 40.18307 | 34969 ft | 530 kts | 96° |
| 2026-05-01 11:45 | 41.81555 | 40.28192 | 34982 ft | 530 kts | 96° |
| 2026-05-01 11:45 | 41.81126 | 40.38069 | 34977 ft | 530 kts | 97° |
| 2026-05-01 11:46 | 41.80696 | 40.47878 | 34963 ft | 531 kts | 97° |
| 2026-05-01 11:46 | 41.80256 | 40.57761 | 34961 ft | 531 kts | 97° |
| 2026-05-01 11:47 | 41.79806 | 40.67651 | 34968 ft | 530 kts | 97° |
| 2026-05-01 11:47 | 41.79328 | 40.77522 | 34972 ft | 530 kts | 97° |
| 2026-05-01 11:48 | 41.78837 | 40.87353 | 34961 ft | 530 kts | 97° |
| 2026-05-01 11:48 | 41.78338 | 40.97216 | 34943 ft | 530 kts | 97° |
| 2026-05-01 11:49 | 41.77834 | 41.07071 | 34961 ft | 530 kts | 97° |
| 2026-05-01 11:49 | 41.77326 | 41.16842 | 34954 ft | 529 kts | 97° |
| 2026-05-01 11:50 | 41.76806 | 41.26692 | 34966 ft | 529 kts | 97° |
| 2026-05-01 11:50 | 41.76277 | 41.36540 | 34955 ft | 529 kts | 97° |
| 2026-05-01 11:51 | 41.75740 | 41.46371 | 34972 ft | 528 kts | 97° |
| 2026-05-01 11:51 | 41.75195 | 41.56196 | 34978 ft | 528 kts | 97° |
| 2026-05-01 11:52 | 41.74645 | 41.65963 | 34985 ft | 528 kts | 97° |
| 2026-05-01 11:52 | 41.74084 | 41.75789 | 34978 ft | 528 kts | 97° |
| 2026-05-01 11:53 | 41.73515 | 41.85609 | 34953 ft | 527 kts | 97° |
| 2026-05-01 11:53 | 41.72938 | 41.95399 | 34936 ft | 526 kts | 97° |
| 2026-05-01 11:54 | 41.72360 | 42.05104 | 34926 ft | 526 kts | 98° |
| 2026-05-01 11:54 | 41.71771 | 42.14874 | 34928 ft | 526 kts | 98° |
| 2026-05-01 11:55 | 41.71178 | 42.24655 | 34918 ft | 526 kts | 97° |
| 2026-05-01 11:55 | 41.70588 | 42.34415 | 34925 ft | 525 kts | 97° |
| 2026-05-01 11:56 | 41.69986 | 42.44146 | 34937 ft | 524 kts | 98° |
| 2026-05-01 11:56 | 41.69377 | 42.53832 | 34923 ft | 525 kts | 98° |
| 2026-05-01 11:57 | 41.68862 | 42.61923 | 34908 ft | 523 kts | 98° |
| 2026-05-01 11:57 | 41.68132 | 42.73272 | 34935 ft | 524 kts | 98° |
| 2026-05-01 11:58 | 41.67498 | 42.83000 | 34934 ft | 524 kts | 98° |
| 2026-05-01 11:59 | 41.66513 | 42.97554 | 34946 ft | 525 kts | 98° |
| 2026-05-01 11:59 | 41.65833 | 43.07284 | 34935 ft | 524 kts | 98° |
| 2026-05-01 12:00 | 41.64921 | 43.20227 | 34954 ft | 524 kts | 98° |
| 2026-05-01 12:01 | 41.63883 | 43.34727 | 34970 ft | 525 kts | 98° |
| 2026-05-01 12:01 | 41.63176 | 43.44465 | 34964 ft | 525 kts | 98° |
| 2026-05-01 12:02 | 41.62467 | 43.54136 | 34985 ft | 525 kts | 98° |
| 2026-05-01 12:02 | 41.61748 | 43.63869 | 35011 ft | 525 kts | 98° |
| 2026-05-01 12:03 | 41.61023 | 43.73584 | 34998 ft | 525 kts | 98° |
| 2026-05-01 12:03 | 41.60290 | 43.83307 | 35018 ft | 524 kts | 98° |
| 2026-05-01 12:04 | 41.59550 | 43.92992 | 35048 ft | 524 kts | 99° |
| 2026-05-01 12:04 | 41.58804 | 44.02649 | 35047 ft | 525 kts | 99° |
| 2026-05-01 12:05 | 41.58046 | 44.12381 | 35063 ft | 526 kts | 99° |
| 2026-05-01 12:05 | 41.56384 | 44.26806 | 35066 ft | 522 kts | 109° |
| 2026-05-01 12:06 | 41.54096 | 44.35998 | 35052 ft | 520 kts | 112° |
| 2026-05-01 12:06 | 41.51767 | 44.45137 | 35072 ft | 520 kts | 112° |
| 2026-05-01 12:07 | 41.49489 | 44.54239 | 35081 ft | 520 kts | 112° |
| 2026-05-01 12:07 | 41.47206 | 44.63416 | 35079 ft | 520 kts | 112° |
| 2026-05-01 12:08 | 41.44932 | 44.72522 | 35075 ft | 519 kts | 112° |
| 2026-05-01 12:08 | 41.42638 | 44.81659 | 35075 ft | 519 kts | 112° |
| 2026-05-01 12:09 | 41.40341 | 44.90772 | 35056 ft | 518 kts | 111° |
| 2026-05-01 12:09 | 41.38035 | 44.99888 | 35067 ft | 519 kts | 112° |
| 2026-05-01 12:10 | 41.34572 | 45.13503 | 35070 ft | 519 kts | 112° |
| 2026-05-01 12:11 | 41.31070 | 45.27163 | 35063 ft | 519 kts | 112° |
| 2026-05-01 12:11 | 41.28737 | 45.36229 | 35074 ft | 520 kts | 112° |
| 2026-05-01 12:12 | 41.26383 | 45.45341 | 35066 ft | 519 kts | 112° |
| 2026-05-01 12:12 | 41.24034 | 45.54408 | 35068 ft | 519 kts | 112° |
| 2026-05-01 12:13 | 41.21689 | 45.63423 | 35067 ft | 518 kts | 112° |
| 2026-05-01 12:13 | 41.19315 | 45.72462 | 35073 ft | 517 kts | 112° |
| 2026-05-01 12:14 | 41.16916 | 45.81488 | 35063 ft | 517 kts | 112° |
| 2026-05-01 12:14 | 41.14516 | 45.90499 | 35071 ft | 517 kts | 112° |
| 2026-05-01 12:15 | 41.12132 | 45.99429 | 35077 ft | 516 kts | 112° |
| 2026-05-01 12:15 | 41.09725 | 46.08415 | 35080 ft | 516 kts | 112° |
| 2026-05-01 12:16 | 41.07310 | 46.17403 | 35081 ft | 517 kts | 113° |
| 2026-05-01 12:16 | 41.04895 | 46.26358 | 35091 ft | 516 kts | 113° |
| 2026-05-01 12:17 | 41.02494 | 46.35283 | 35095 ft | 517 kts | 113° |
| 2026-05-01 12:17 | 41.00097 | 46.44284 | 35081 ft | 517 kts | 113° |
| 2026-05-01 12:18 | 40.97695 | 46.53287 | 35081 ft | 517 kts | 113° |
| 2026-05-01 12:18 | 40.95299 | 46.62209 | 35095 ft | 517 kts | 113° |
| 2026-05-01 12:19 | 40.92877 | 46.71193 | 35087 ft | 516 kts | 113° |
| 2026-05-01 12:19 | 40.90459 | 46.80138 | 35089 ft | 516 kts | 113° |
| 2026-05-01 12:20 | 40.88036 | 46.89021 | 35083 ft | 516 kts | 114° |
| 2026-05-01 12:20 | 40.85585 | 46.97927 | 35091 ft | 516 kts | 114° |
| 2026-05-01 12:21 | 40.83140 | 47.06792 | 35076 ft | 516 kts | 113° |
| 2026-05-01 12:21 | 40.80680 | 47.15693 | 35082 ft | 516 kts | 114° |
| 2026-05-01 12:22 | 40.78208 | 47.24595 | 35071 ft | 516 kts | 114° |
| 2026-05-01 12:22 | 40.75734 | 47.33486 | 35057 ft | 516 kts | 114° |
| 2026-05-01 12:23 | 40.73249 | 47.42378 | 35065 ft | 516 kts | 114° |
| 2026-05-01 12:23 | 40.70763 | 47.51200 | 35055 ft | 515 kts | 114° |
| 2026-05-01 12:24 | 40.68259 | 47.60048 | 35068 ft | 515 kts | 114° |
| 2026-05-01 12:24 | 40.65754 | 47.68879 | 35059 ft | 515 kts | 114° |
| 2026-05-01 12:25 | 40.62000 | 47.82063 | 35067 ft | 514 kts | 114° |
| 2026-05-01 12:26 | 40.59482 | 47.90876 | 35062 ft | 514 kts | 114° |
| 2026-05-01 12:26 | 40.55964 | 48.04220 | 35057 ft | 516 kts | 110° |
| 2026-05-01 12:27 | 40.52729 | 48.17759 | 35055 ft | 516 kts | 111° |
| 2026-05-01 12:28 | 40.49404 | 48.31187 | 35066 ft | 516 kts | 111° |
| 2026-05-01 12:29 | 40.46065 | 48.44649 | 35047 ft | 516 kts | 111° |
| 2026-05-01 12:29 | 40.42724 | 48.58054 | 35053 ft | 516 kts | 111° |
| 2026-05-01 12:30 | 40.39353 | 48.71502 | 35063 ft | 517 kts | 111° |
| 2026-05-01 12:31 | 40.37098 | 48.80454 | 35057 ft | 517 kts | 111° |
| 2026-05-01 12:31 | 40.34849 | 48.89350 | 35050 ft | 516 kts | 111° |
| 2026-05-01 12:32 | 40.32585 | 48.98277 | 35060 ft | 516 kts | 111° |
| 2026-05-01 12:32 | 40.29145 | 49.11658 | 35064 ft | 515 kts | 112° |
| 2026-05-01 12:33 | 40.26828 | 49.20462 | 35054 ft | 515 kts | 112° |
| 2026-05-01 12:33 | 40.24526 | 49.29333 | 35063 ft | 515 kts | 111° |
| 2026-05-01 12:34 | 40.22244 | 49.38246 | 35072 ft | 515 kts | 111° |
| 2026-05-01 12:34 | 40.19969 | 49.47075 | 35078 ft | 515 kts | 112° |
| 2026-05-01 12:35 | 40.17656 | 49.55979 | 35079 ft | 515 kts | 112° |
| 2026-05-01 12:35 | 40.15344 | 49.64802 | 35084 ft | 516 kts | 112° |
| 2026-05-01 12:36 | 40.13006 | 49.73693 | 35086 ft | 516 kts | 112° |
| 2026-05-01 12:36 | 40.10666 | 49.82569 | 35077 ft | 517 kts | 112° |
| 2026-05-01 12:37 | 40.08319 | 49.91443 | 35083 ft | 517 kts | 112° |
| 2026-05-01 12:37 | 40.05963 | 50.00324 | 35091 ft | 517 kts | 112° |
| 2026-05-01 12:38 | 40.03613 | 50.09148 | 35090 ft | 517 kts | 112° |
| 2026-05-01 12:38 | 40.01227 | 50.18073 | 35087 ft | 518 kts | 112° |
| 2026-05-01 12:39 | 39.98863 | 50.26887 | 35097 ft | 518 kts | 112° |
| 2026-05-01 12:39 | 39.96471 | 50.35776 | 35095 ft | 518 kts | 112° |
| 2026-05-01 12:40 | 39.94074 | 50.44649 | 35091 ft | 518 kts | 112° |
| 2026-05-01 12:40 | 39.91683 | 50.53467 | 35103 ft | 519 kts | 112° |
| 2026-05-01 12:41 | 39.89273 | 50.62329 | 35104 ft | 519 kts | 112° |
| 2026-05-01 12:41 | 39.86851 | 50.71200 | 35106 ft | 519 kts | 112° |
| 2026-05-01 12:42 | 39.84420 | 50.80076 | 35109 ft | 519 kts | 112° |
| 2026-05-01 12:42 | 39.82001 | 50.88877 | 35109 ft | 519 kts | 112° |
| 2026-05-01 12:43 | 39.79555 | 50.97744 | 35109 ft | 519 kts | 112° |
| 2026-05-01 12:43 | 39.77123 | 51.06531 | 35105 ft | 519 kts | 112° |
| 2026-05-01 12:44 | 39.74670 | 51.15364 | 35116 ft | 519 kts | 112° |
| 2026-05-01 12:45 | 39.70153 | 51.31549 | 35110 ft | 519 kts | 112° |
| 2026-05-01 12:45 | 39.67279 | 51.41803 | 35120 ft | 520 kts | 112° |
| 2026-05-01 12:46 | 39.65254 | 51.49220 | 35113 ft | 521 kts | 109° |
| 2026-05-01 12:46 | 39.63700 | 51.58364 | 35119 ft | 523 kts | 102° |
| 2026-05-01 12:47 | 39.62459 | 51.67687 | 35114 ft | 524 kts | 102° |
| 2026-05-01 12:47 | 39.61190 | 51.77000 | 35127 ft | 524 kts | 102° |
| 2026-05-01 12:48 | 39.59878 | 51.86320 | 35118 ft | 524 kts | 102° |
| 2026-05-01 12:48 | 39.58554 | 51.95566 | 35121 ft | 524 kts | 102° |
| 2026-05-01 12:49 | 39.57214 | 52.04867 | 35122 ft | 524 kts | 102° |
| 2026-05-01 12:49 | 39.55871 | 52.14159 | 35131 ft | 524 kts | 102° |
| 2026-05-01 12:50 | 39.54524 | 52.23427 | 35122 ft | 525 kts | 102° |
| 2026-05-01 12:50 | 39.53174 | 52.32670 | 35125 ft | 525 kts | 102° |
| 2026-05-01 12:51 | 39.51807 | 52.41964 | 35121 ft | 525 kts | 102° |
| 2026-05-01 12:52 | 39.49743 | 52.55903 | 35128 ft | 525 kts | 102° |
| 2026-05-01 12:52 | 39.47663 | 52.69825 | 35123 ft | 525 kts | 102° |
| 2026-05-01 12:53 | 39.45572 | 52.83702 | 35122 ft | 525 kts | 102° |
| 2026-05-01 12:54 | 39.44166 | 52.92974 | 35127 ft | 525 kts | 102° |
| 2026-05-01 12:54 | 39.42041 | 53.06881 | 35124 ft | 525 kts | 102° |
| 2026-05-01 12:55 | 39.39906 | 53.20738 | 35116 ft | 525 kts | 102° |
| 2026-05-01 12:56 | 39.38465 | 53.30020 | 35118 ft | 525 kts | 102° |
| 2026-05-01 12:56 | 39.37021 | 53.39278 | 35118 ft | 525 kts | 103° |
| 2026-05-01 12:57 | 39.35568 | 53.48542 | 35117 ft | 525 kts | 103° |
| 2026-05-01 12:57 | 39.33385 | 53.62368 | 35116 ft | 526 kts | 103° |
| 2026-05-01 12:58 | 39.31911 | 53.71636 | 35106 ft | 526 kts | 103° |
| 2026-05-01 12:59 | 39.29688 | 53.85525 | 35094 ft | 526 kts | 103° |
| 2026-05-01 12:59 | 39.27451 | 53.99384 | 35099 ft | 526 kts | 103° |
| 2026-05-01 13:00 | 39.25192 | 54.13275 | 35105 ft | 526 kts | 103° |
| 2026-05-01 13:01 | 39.22929 | 54.27080 | 35092 ft | 526 kts | 103° |
| 2026-05-01 13:02 | 39.20640 | 54.40936 | 35092 ft | 526 kts | 103° |
| 2026-05-01 13:07 | 39.03354 | 55.42070 | 35098 ft | 526 kts | 103° |
| 2026-05-01 13:08 | 39.01737 | 55.51263 | 35100 ft | 526 kts | 103° |
| 2026-05-01 13:08 | 39.00122 | 55.60398 | 35104 ft | 526 kts | 103° |
| 2026-05-01 13:09 | 38.98498 | 55.69581 | 35098 ft | 527 kts | 104° |
| 2026-05-01 13:09 | 38.96866 | 55.78776 | 35101 ft | 527 kts | 104° |
| 2026-05-01 13:10 | 38.95236 | 55.87912 | 35100 ft | 527 kts | 104° |
| 2026-05-01 13:10 | 38.93598 | 55.97048 | 35100 ft | 527 kts | 104° |
| 2026-05-01 13:11 | 38.91943 | 56.06231 | 35087 ft | 527 kts | 104° |
| 2026-05-01 13:11 | 38.90280 | 56.15414 | 35099 ft | 528 kts | 104° |
| 2026-05-01 13:12 | 38.88621 | 56.24534 | 35100 ft | 528 kts | 104° |
| 2026-05-01 13:12 | 38.86940 | 56.33734 | 35100 ft | 528 kts | 104° |
| 2026-05-01 13:13 | 38.85251 | 56.42929 | 35101 ft | 528 kts | 104° |
| 2026-05-01 13:13 | 38.83564 | 56.52073 | 35087 ft | 528 kts | 104° |
| 2026-05-01 13:14 | 38.81861 | 56.61258 | 35096 ft | 529 kts | 104° |
| 2026-05-01 13:14 | 38.80152 | 56.70431 | 35100 ft | 529 kts | 104° |
| 2026-05-01 13:15 | 38.78434 | 56.79613 | 35103 ft | 529 kts | 104° |
| 2026-05-01 13:15 | 38.76718 | 56.88740 | 35098 ft | 530 kts | 104° |
| 2026-05-01 13:16 | 38.74978 | 56.97955 | 35106 ft | 531 kts | 105° |
| 2026-05-01 13:16 | 38.73232 | 57.07154 | 35104 ft | 531 kts | 105° |
| 2026-05-01 13:17 | 38.69727 | 57.25501 | 35097 ft | 531 kts | 105° |
| 2026-05-01 13:18 | 38.67081 | 57.39242 | 35107 ft | 531 kts | 105° |
| 2026-05-01 13:18 | 38.65300 | 57.48437 | 35107 ft | 531 kts | 105° |
| 2026-05-01 13:19 | 38.63515 | 57.57622 | 35104 ft | 531 kts | 105° |
| 2026-05-01 13:20 | 38.60282 | 57.71129 | 35093 ft | 529 kts | 116° |
| 2026-05-01 13:20 | 38.57230 | 57.79630 | 35102 ft | 529 kts | 117° |
| 2026-05-01 13:21 | 38.52638 | 57.92484 | 35108 ft | 530 kts | 116° |
| 2026-05-01 13:21 | 38.49630 | 58.01026 | 35111 ft | 530 kts | 116° |
| 2026-05-01 13:22 | 38.46601 | 58.09610 | 35106 ft | 530 kts | 116° |
| 2026-05-01 13:22 | 38.43594 | 58.18095 | 35107 ft | 529 kts | 116° |
| 2026-05-01 13:23 | 38.40577 | 58.26696 | 35103 ft | 530 kts | 114° |
| 2026-05-01 13:23 | 38.38395 | 58.35651 | 35114 ft | 533 kts | 105° |
| 2026-05-01 13:24 | 38.36632 | 58.44872 | 35117 ft | 535 kts | 105° |
| 2026-05-01 13:25 | 38.33932 | 58.58697 | 35112 ft | 536 kts | 106° |
| 2026-05-01 13:25 | 38.32089 | 58.67873 | 35108 ft | 536 kts | 106° |
| 2026-05-01 13:26 | 38.30539 | 58.75535 | 35112 ft | 537 kts | 106° |
| 2026-05-01 13:26 | 38.28667 | 58.84765 | 35112 ft | 538 kts | 106° |
| 2026-05-01 13:27 | 38.26792 | 58.93988 | 35110 ft | 538 kts | 106° |
| 2026-05-01 13:27 | 38.23963 | 59.07825 | 35126 ft | 539 kts | 107° |
| 2026-05-01 13:28 | 38.21119 | 59.21642 | 35114 ft | 540 kts | 107° |
| 2026-05-01 13:29 | 38.17287 | 59.40126 | 35116 ft | 540 kts | 107° |
| 2026-05-01 13:31 | 38.11477 | 59.67845 | 35129 ft | 543 kts | 107° |
| 2026-05-01 13:32 | 38.06568 | 59.90993 | 35117 ft | 544 kts | 108° |
| 2026-05-01 13:33 | 38.01596 | 60.14206 | 35124 ft | 545 kts | 108° |
| 2026-05-01 13:34 | 37.97573 | 60.32722 | 35124 ft | 546 kts | 108° |
| 2026-05-01 13:35 | 37.94514 | 60.46668 | 35122 ft | 547 kts | 108° |
| 2026-05-01 13:36 | 37.91445 | 60.60592 | 35127 ft | 548 kts | 108° |
| 2026-05-01 13:36 | 37.88359 | 60.74506 | 35130 ft | 550 kts | 108° |
| 2026-05-01 13:37 | 37.86275 | 60.83855 | 35129 ft | 550 kts | 108° |
| 2026-05-01 13:37 | 37.84186 | 60.93188 | 35126 ft | 551 kts | 108° |
| 2026-05-01 13:38 | 37.81040 | 61.07173 | 35109 ft | 551 kts | 109° |
| 2026-05-01 13:39 | 37.78942 | 61.16450 | 35123 ft | 551 kts | 109° |
| 2026-05-01 13:39 | 37.76825 | 61.25774 | 35130 ft | 552 kts | 109° |
| 2026-05-01 13:40 | 37.74698 | 61.35103 | 35121 ft | 552 kts | 109° |
| 2026-05-01 13:40 | 37.72561 | 61.44442 | 35128 ft | 552 kts | 109° |
| 2026-05-01 13:41 | 37.70429 | 61.53719 | 35119 ft | 553 kts | 109° |
| 2026-05-01 13:41 | 37.68280 | 61.63034 | 35130 ft | 553 kts | 109° |
| 2026-05-01 13:42 | 37.66120 | 61.72364 | 35132 ft | 553 kts | 109° |
| 2026-05-01 13:42 | 37.63941 | 61.81682 | 35132 ft | 553 kts | 111° |
| 2026-05-01 13:43 | 37.60931 | 61.90512 | 35133 ft | 547 kts | 122° |
| 2026-05-01 13:43 | 37.56861 | 61.98543 | 35122 ft | 541 kts | 131° |
| 2026-05-01 13:44 | 37.52330 | 62.06122 | 35132 ft | 540 kts | 131° |
| 2026-05-01 13:44 | 37.47801 | 62.13693 | 35128 ft | 541 kts | 131° |
| 2026-05-01 13:45 | 37.43326 | 62.21244 | 35118 ft | 541 kts | 131° |
| 2026-05-01 13:45 | 37.38836 | 62.28847 | 35122 ft | 541 kts | 131° |
| 2026-05-01 13:46 | 37.34335 | 62.36451 | 35131 ft | 541 kts | 131° |
| 2026-05-01 13:46 | 37.29837 | 62.44027 | 35112 ft | 541 kts | 131° |
| 2026-05-01 13:47 | 37.25351 | 62.51560 | 35127 ft | 541 kts | 131° |
| 2026-05-01 13:47 | 37.20823 | 62.59147 | 35127 ft | 541 kts | 131° |
| 2026-05-01 13:48 | 37.16310 | 62.66692 | 35104 ft | 541 kts | 131° |
| 2026-05-01 13:48 | 37.11816 | 62.74192 | 35132 ft | 541 kts | 131° |
| 2026-05-01 13:49 | 37.07282 | 62.81738 | 35132 ft | 541 kts | 131° |
| 2026-05-01 13:49 | 37.02742 | 62.89278 | 35133 ft | 541 kts | 131° |
| 2026-05-01 13:50 | 36.98205 | 62.96797 | 35119 ft | 541 kts | 132° |
| 2026-05-01 13:50 | 36.93658 | 63.04315 | 35129 ft | 542 kts | 132° |
| 2026-05-01 13:51 | 36.89126 | 63.11790 | 35136 ft | 543 kts | 132° |
| 2026-05-01 13:51 | 36.84557 | 63.19311 | 35115 ft | 543 kts | 132° |
| 2026-05-01 13:52 | 36.79985 | 63.26822 | 35128 ft | 543 kts | 132° |
| 2026-05-01 13:52 | 36.75402 | 63.34333 | 35132 ft | 544 kts | 132° |
| 2026-05-01 13:53 | 36.70810 | 63.41841 | 35130 ft | 544 kts | 132° |
| 2026-05-01 13:53 | 36.63902 | 63.53104 | 35115 ft | 545 kts | 132° |
| 2026-05-01 13:54 | 36.59321 | 63.60553 | 35134 ft | 546 kts | 132° |
| 2026-05-01 13:54 | 36.54688 | 63.68071 | 35129 ft | 546 kts | 132° |
| 2026-05-01 13:55 | 36.50049 | 63.75580 | 35115 ft | 547 kts | 133° |
| 2026-05-01 13:55 | 36.45396 | 63.83097 | 35124 ft | 548 kts | 133° |
| 2026-05-01 13:56 | 36.40764 | 63.90564 | 35117 ft | 549 kts | 133° |
| 2026-05-01 13:56 | 36.36101 | 63.98064 | 35102 ft | 549 kts | 133° |
| 2026-05-01 13:57 | 36.32209 | 64.04310 | 35118 ft | 550 kts | 133° |
| 2026-05-01 13:57 | 36.26755 | 64.13047 | 35111 ft | 551 kts | 133° |
| 2026-05-01 13:58 | 36.22062 | 64.20548 | 35116 ft | 551 kts | 133° |
| 2026-05-01 13:58 | 36.17344 | 64.28071 | 35102 ft | 552 kts | 133° |
| 2026-05-01 13:59 | 36.12728 | 64.35623 | 35107 ft | 555 kts | 131° |
| 2026-05-01 13:59 | 36.08187 | 64.43334 | 35112 ft | 556 kts | 131° |
| 2026-05-01 14:00 | 36.03627 | 64.51072 | 35113 ft | 556 kts | 131° |
| 2026-05-01 14:00 | 35.99043 | 64.58776 | 35117 ft | 556 kts | 131° |
| 2026-05-01 14:01 | 35.94472 | 64.66413 | 35118 ft | 555 kts | 131° |
| 2026-05-01 14:01 | 35.89866 | 64.74089 | 35115 ft | 555 kts | 132° |
| 2026-05-01 14:02 | 35.85266 | 64.81743 | 35114 ft | 556 kts | 132° |
| 2026-05-01 14:02 | 35.80650 | 64.89408 | 35128 ft | 557 kts | 132° |
| 2026-05-01 14:03 | 35.76035 | 64.97055 | 35125 ft | 559 kts | 132° |
| 2026-05-01 14:03 | 35.71383 | 65.04744 | 35096 ft | 559 kts | 132° |
| 2026-05-01 14:04 | 35.66732 | 65.12418 | 35121 ft | 560 kts | 132° |
| 2026-05-01 14:04 | 35.62860 | 65.18791 | 35143 ft | 561 kts | 132° |
| 2026-05-01 14:05 | 35.57410 | 65.27743 | 35136 ft | 562 kts | 132° |
| 2026-05-01 14:05 | 35.52717 | 65.35428 | 35111 ft | 563 kts | 133° |
| 2026-05-01 14:06 | 35.47995 | 65.43154 | 35113 ft | 565 kts | 133° |
| 2026-05-01 14:06 | 35.43268 | 65.50869 | 35122 ft | 565 kts | 133° |
| 2026-05-01 14:07 | 35.38564 | 65.58528 | 35103 ft | 566 kts | 133° |
| 2026-05-01 14:08 | 35.31437 | 65.70095 | 35081 ft | 566 kts | 133° |
| 2026-05-01 14:08 | 35.26709 | 65.77752 | 35080 ft | 566 kts | 133° |
| 2026-05-01 14:09 | 35.21945 | 65.85449 | 35091 ft | 567 kts | 133° |
| 2026-05-01 14:09 | 35.17957 | 65.91877 | 35066 ft | 568 kts | 133° |
| 2026-05-01 14:10 | 35.13161 | 65.99589 | 35067 ft | 570 kts | 133° |
| 2026-05-01 14:10 | 35.08351 | 66.07316 | 35074 ft | 570 kts | 133° |
| 2026-05-01 14:11 | 35.03569 | 66.14979 | 35047 ft | 571 kts | 134° |
| 2026-05-01 14:11 | 34.96307 | 66.26584 | 35028 ft | 573 kts | 133° |
| 2026-05-01 14:12 | 34.91471 | 66.34225 | 35044 ft | 573 kts | 134° |
| 2026-05-01 14:12 | 34.86576 | 66.41918 | 35037 ft | 573 kts | 134° |
| 2026-05-01 14:13 | 34.81682 | 66.49604 | 35016 ft | 574 kts | 134° |
| 2026-05-01 14:13 | 34.76798 | 66.57264 | 35004 ft | 575 kts | 134° |
| 2026-05-01 14:14 | 34.71878 | 66.64962 | 35011 ft | 575 kts | 134° |
| 2026-05-01 14:14 | 34.66971 | 66.72629 | 34992 ft | 574 kts | 134° |
| 2026-05-01 14:15 | 34.62092 | 66.80228 | 34989 ft | 575 kts | 134° |
| 2026-05-01 14:15 | 34.57161 | 66.87900 | 35002 ft | 576 kts | 134° |
| 2026-05-01 14:16 | 34.52206 | 66.95584 | 34991 ft | 578 kts | 134° |
| 2026-05-01 14:16 | 34.47228 | 67.03256 | 34961 ft | 580 kts | 135° |
| 2026-05-01 14:17 | 34.42219 | 67.10952 | 34977 ft | 581 kts | 134° |
| 2026-05-01 14:17 | 34.37237 | 67.18601 | 34970 ft | 582 kts | 135° |
| 2026-05-01 14:18 | 34.32219 | 67.26288 | 34959 ft | 582 kts | 134° |
| 2026-05-01 14:18 | 34.28039 | 67.32683 | 34963 ft | 582 kts | 134° |
| 2026-05-01 14:19 | 34.22159 | 67.41661 | 34967 ft | 581 kts | 135° |
| 2026-05-01 14:19 | 34.17130 | 67.49319 | 34957 ft | 581 kts | 135° |
| 2026-05-01 14:20 | 34.09619 | 67.60719 | 34952 ft | 579 kts | 134° |
| 2026-05-01 14:21 | 34.04577 | 67.68360 | 34948 ft | 580 kts | 134° |
| 2026-05-01 14:21 | 33.99582 | 67.75911 | 34958 ft | 580 kts | 135° |
| 2026-05-01 14:22 | 33.91985 | 67.87264 | 34922 ft | 579 kts | 135° |
| 2026-05-01 14:22 | 33.86885 | 67.94795 | 34912 ft | 579 kts | 135° |
| 2026-05-01 14:23 | 33.81834 | 68.02255 | 34907 ft | 580 kts | 135° |
| 2026-05-01 14:23 | 33.76710 | 68.09822 | 34909 ft | 580 kts | 135° |
| 2026-05-01 14:24 | 33.71640 | 68.17296 | 34900 ft | 580 kts | 135° |
| 2026-05-01 14:24 | 33.66520 | 68.24821 | 34895 ft | 582 kts | 135° |
| 2026-05-01 14:25 | 33.61377 | 68.32366 | 34873 ft | 585 kts | 135° |
| 2026-05-01 14:25 | 33.56258 | 68.39865 | 34855 ft | 585 kts | 135° |
| 2026-05-01 14:26 | 33.48388 | 68.51102 | 34811 ft | 585 kts | 136° |
| 2026-05-01 14:27 | 33.43108 | 68.58461 | 34798 ft | 586 kts | 136° |
| 2026-05-01 14:27 | 33.37795 | 68.65902 | 34804 ft | 586 kts | 136° |
| 2026-05-01 14:28 | 33.29857 | 68.77027 | 34782 ft | 584 kts | 136° |
| 2026-05-01 14:28 | 33.24735 | 68.84512 | 34790 ft | 585 kts | 133° |
| 2026-05-01 14:29 | 33.19785 | 68.92245 | 34810 ft | 586 kts | 132° |
| 2026-05-01 14:30 | 33.09896 | 69.07661 | 34804 ft | 584 kts | 133° |
| 2026-05-01 14:31 | 33.02442 | 69.19138 | 34805 ft | 583 kts | 133° |
| 2026-05-01 14:31 | 32.97461 | 69.26796 | 34817 ft | 584 kts | 133° |
| 2026-05-01 14:32 | 32.92520 | 69.34381 | 34802 ft | 586 kts | 133° |
| 2026-05-01 14:32 | 32.87504 | 69.42068 | 34806 ft | 587 kts | 133° |
| 2026-05-01 14:33 | 32.82482 | 69.49729 | 34812 ft | 587 kts | 133° |
| 2026-05-01 14:33 | 32.77444 | 69.57377 | 34820 ft | 587 kts | 133° |
| 2026-05-01 14:34 | 32.72438 | 69.64966 | 34807 ft | 585 kts | 133° |
| 2026-05-01 14:34 | 32.67424 | 69.72558 | 34805 ft | 584 kts | 133° |
| 2026-05-01 14:35 | 32.62411 | 69.80133 | 34808 ft | 582 kts | 133° |
| 2026-05-01 14:35 | 32.57399 | 69.87693 | 34787 ft | 581 kts | 133° |
| 2026-05-01 14:36 | 32.52428 | 69.95176 | 34762 ft | 581 kts | 133° |
| 2026-05-01 14:36 | 32.47617 | 70.02849 | 34740 ft | 583 kts | 121° |
| 2026-05-01 14:36 | 32.46138 | 70.07331 | 34759 ft | 588 kts | 104° |
| 2026-05-01 14:37 | 32.45642 | 70.12134 | 34718 ft | 589 kts | 88° |
| 2026-05-01 14:37 | 32.46129 | 70.16925 | 34709 ft | 585 kts | 72° |
| 2026-05-01 14:37 | 32.47501 | 70.21437 | 34706 ft | 577 kts | 58° |
| 2026-05-01 14:37 | 32.49570 | 70.25440 | 34741 ft | 568 kts | 46° |
| 2026-05-01 14:38 | 32.52180 | 70.28923 | 34697 ft | 556 kts | 33° |
| 2026-05-01 14:38 | 32.55241 | 70.31472 | 34736 ft | 538 kts | 20° |
| 2026-05-01 14:38 | 32.58553 | 70.33519 | 34747 ft | 536 kts | 19° |
| 2026-05-01 14:39 | 32.65116 | 70.37860 | 34746 ft | 543 kts | 23° |
| 2026-05-01 14:39 | 32.71530 | 70.42727 | 34729 ft | 547 kts | 25° |
| 2026-05-01 14:40 | 32.77895 | 70.47688 | 34723 ft | 547 kts | 25° |
| 2026-05-01 14:40 | 32.84258 | 70.52559 | 34719 ft | 546 kts | 24° |
| 2026-05-01 14:41 | 32.90667 | 70.57434 | 34732 ft | 545 kts | 24° |
| 2026-05-01 14:41 | 32.97063 | 70.62281 | 34727 ft | 543 kts | 23° |
| 2026-05-01 14:42 | 33.03454 | 70.66994 | 34730 ft | 542 kts | 23° |
| 2026-05-01 14:42 | 33.09869 | 70.71715 | 34731 ft | 542 kts | 23° |
| 2026-05-01 14:43 | 33.16291 | 70.76475 | 34748 ft | 542 kts | 23° |
| 2026-05-01 14:43 | 33.22654 | 70.81210 | 34784 ft | 542 kts | 23° |
| 2026-05-01 14:44 | 33.29067 | 70.85990 | 34768 ft | 543 kts | 23° |
| 2026-05-01 14:44 | 33.35433 | 70.90751 | 34767 ft | 530 kts | 23° |
| 2026-05-01 14:44 | 33.38525 | 70.93062 | 34763 ft | 527 kts | 23° |
| 2026-05-01 14:45 | 33.47148 | 71.01328 | 34790 ft | 557 kts | 51° |
| 2026-05-01 14:45 | 33.48847 | 71.05545 | 34785 ft | 572 kts | 68° |
| 2026-05-01 14:46 | 33.49591 | 71.10305 | 34793 ft | 580 kts | 83° |
| 2026-05-01 14:46 | 33.50173 | 71.24816 | 34750 ft | 585 kts | 84° |
| 2026-05-01 14:47 | 33.50729 | 71.34576 | 34761 ft | 586 kts | 83° |
| 2026-05-01 14:48 | 33.51663 | 71.49168 | 34756 ft | 588 kts | 83° |
| 2026-05-01 14:48 | 33.52534 | 71.63871 | 34742 ft | 587 kts | 83° |
| 2026-05-01 14:49 | 33.53668 | 71.83285 | 34732 ft | 583 kts | 83° |
| 2026-05-01 14:50 | 33.54804 | 72.02645 | 34740 ft | 581 kts | 83° |
| 2026-05-01 14:51 | 33.55641 | 72.17047 | 34724 ft | 564 kts | 83° |
| 2026-05-01 14:52 | 33.56150 | 72.26185 | 34728 ft | 533 kts | 83° |
| 2026-05-01 14:52 | 33.56384 | 72.30569 | 34709 ft | 519 kts | 83° |
| 2026-05-01 14:53 | 33.57041 | 72.43246 | 34745 ft | 509 kts | 83° |
| 2026-05-01 14:53 | 33.57404 | 72.50290 | 34739 ft | 507 kts | 83° |
| 2026-05-01 14:54 | 33.57906 | 72.60092 | 34747 ft | 504 kts | 83° |
| 2026-05-01 14:54 | 33.58263 | 72.67109 | 34751 ft | 502 kts | 82° |
| 2026-05-01 14:55 | 33.58669 | 72.75270 | 34710 ft | 482 kts | 82° |
| 2026-05-01 14:55 | 33.59048 | 72.83224 | 34741 ft | 476 kts | 82° |
| 2026-05-01 14:56 | 33.59427 | 72.91178 | 34753 ft | 477 kts | 82° |
| 2026-05-01 14:56 | 33.59807 | 72.99149 | 34773 ft | 480 kts | 82° |
| 2026-05-01 14:56 | 33.60003 | 73.03187 | 34784 ft | 491 kts | 82° |
| 2026-05-01 14:57 | 33.60210 | 73.07321 | 34785 ft | 499 kts | 82° |
| 2026-05-01 14:57 | 33.60837 | 73.19751 | 34801 ft | 500 kts | 82° |
| 2026-05-01 14:58 | 33.61258 | 73.28091 | 34814 ft | 500 kts | 82° |
| 2026-05-01 14:58 | 33.61677 | 73.36421 | 34820 ft | 499 kts | 82° |
| 2026-05-01 14:59 | 33.62095 | 73.44744 | 34825 ft | 498 kts | 82° |
| 2026-05-01 14:59 | 33.62507 | 73.52975 | 34847 ft | 496 kts | 82° |
| 2026-05-01 15:00 | 33.62932 | 73.61360 | 34813 ft | 514 kts | 82° |
| 2026-05-01 15:00 | 33.63159 | 73.65698 | 34871 ft | 524 kts | 82° |
| 2026-05-01 15:00 | 33.63397 | 73.70118 | 34854 ft | 535 kts | 82° |
| 2026-05-01 15:01 | 33.63644 | 73.74610 | 34870 ft | 543 kts | 82° |
| 2026-05-01 15:01 | 33.64165 | 73.83808 | 34873 ft | 560 kts | 82° |
| 2026-05-01 15:02 | 33.64705 | 73.93140 | 34865 ft | 564 kts | 82° |
| 2026-05-01 15:02 | 33.65254 | 74.02600 | 34926 ft | 571 kts | 82° |
| 2026-05-01 15:03 | 33.65810 | 74.12149 | 34954 ft | 572 kts | 82° |
| 2026-05-01 15:03 | 33.66362 | 74.21619 | 34984 ft | 571 kts | 82° |
| 2026-05-01 15:04 | 33.66921 | 74.31118 | 34977 ft | 569 kts | 82° |
| 2026-05-01 15:04 | 33.67481 | 74.40615 | 35026 ft | 569 kts | 82° |
| 2026-05-01 15:05 | 33.68040 | 74.50042 | 35056 ft | 568 kts | 82° |
| 2026-05-01 15:05 | 33.68594 | 74.59502 | 35049 ft | 567 kts | 82° |
| 2026-05-01 15:06 | 33.69146 | 74.68951 | 35036 ft | 567 kts | 82° |
| 2026-05-01 15:06 | 33.69701 | 74.78408 | 34991 ft | 566 kts | 82° |
| 2026-05-01 15:07 | 33.70250 | 74.87801 | 34990 ft | 567 kts | 82° |
| 2026-05-01 15:07 | 33.70804 | 74.97268 | 34994 ft | 567 kts | 82° |
| 2026-05-01 15:08 | 33.71357 | 75.06682 | 35022 ft | 567 kts | 82° |
| 2026-05-01 15:08 | 33.71912 | 75.16147 | 34991 ft | 567 kts | 82° |
| 2026-05-01 15:09 | 33.72466 | 75.25596 | 35014 ft | 566 kts | 82° |
| 2026-05-01 15:09 | 33.73019 | 75.35051 | 35018 ft | 566 kts | 82° |
| 2026-05-01 15:10 | 33.73571 | 75.44458 | 35050 ft | 567 kts | 82° |
| 2026-05-01 15:10 | 33.74401 | 75.58569 | 35073 ft | 562 kts | 82° |
| 2026-05-01 15:11 | 33.75244 | 75.72570 | 35123 ft | 557 kts | 82° |
| 2026-05-01 15:12 | 33.75800 | 75.81861 | 35173 ft | 557 kts | 82° |
| 2026-05-01 15:12 | 33.76626 | 75.95784 | 35177 ft | 556 kts | 82° |
| 2026-05-01 15:14 | 33.77995 | 76.18893 | 35210 ft | 554 kts | 83° |
| 2026-05-01 15:14 | 33.78802 | 76.32690 | 35182 ft | 551 kts | 82° |
| 2026-05-01 15:15 | 33.79876 | 76.51046 | 35147 ft | 549 kts | 83° |
| 2026-05-01 15:16 | 33.80950 | 76.69299 | 35101 ft | 548 kts | 83° |
| 2026-05-01 15:18 | 33.82308 | 76.92122 | 35082 ft | 547 kts | 83° |
| 2026-05-01 15:19 | 33.83390 | 77.10397 | 35023 ft | 547 kts | 83° |
| 2026-05-01 15:19 | 33.84198 | 77.24079 | 35021 ft | 545 kts | 83° |
| 2026-05-01 15:20 | 33.84991 | 77.37660 | 35049 ft | 543 kts | 83° |
| 2026-05-01 15:21 | 33.85504 | 77.46680 | 35094 ft | 541 kts | 83° |
| 2026-05-01 15:21 | 33.86024 | 77.55721 | 35110 ft | 541 kts | 83° |
| 2026-05-01 15:22 | 33.86801 | 77.69215 | 35081 ft | 538 kts | 83° |
| 2026-05-01 15:22 | 33.87318 | 77.78184 | 35048 ft | 535 kts | 83° |
| 2026-05-01 15:23 | 33.87835 | 77.87123 | 35024 ft | 534 kts | 83° |
| 2026-05-01 15:23 | 33.88347 | 77.95995 | 35028 ft | 533 kts | 83° |
| 2026-05-01 15:24 | 33.88862 | 78.04906 | 35035 ft | 533 kts | 83° |
| 2026-05-01 15:24 | 33.89380 | 78.13817 | 35040 ft | 534 kts | 83° |
| 2026-05-01 15:25 | 33.89897 | 78.22770 | 35037 ft | 535 kts | 83° |
| 2026-05-01 15:25 | 33.90414 | 78.31729 | 35050 ft | 536 kts | 83° |
| 2026-05-01 15:26 | 33.90934 | 78.40651 | 35024 ft | 537 kts | 83° |
| 2026-05-01 15:26 | 33.91456 | 78.49637 | 35026 ft | 537 kts | 83° |
| 2026-05-01 15:27 | 33.91976 | 78.58552 | 35025 ft | 537 kts | 83° |
| 2026-05-01 15:28 | 33.92760 | 78.71991 | 35035 ft | 531 kts | 84° |
| 2026-05-01 15:28 | 33.93273 | 78.80778 | 35024 ft | 523 kts | 84° |
| 2026-05-01 15:29 | 33.94042 | 78.93960 | 35035 ft | 526 kts | 84° |
| 2026-05-01 15:30 | 33.94989 | 79.10092 | 35048 ft | 527 kts | 85° |
| 2026-05-01 15:31 | 33.96636 | 79.37831 | 35066 ft | 523 kts | 85° |
| 2026-05-01 15:32 | 33.97671 | 79.55221 | 35059 ft | 519 kts | 85° |
| 2026-05-01 15:34 | 33.99237 | 79.81209 | 35094 ft | 520 kts | 85° |